createdAt,value
2023-01-21T00:00:45.786Z,38.50
2023-01-21T00:03:28.078Z,66.80
2023-01-21T00:06:01.545Z,61.40
2023-01-21T00:08:34.589Z,37.80
2023-01-21T00:11:14.620Z,47.70
2023-01-21T00:13:48.128Z,66.70
2023-01-21T00:16:21.108Z,62.30
2023-01-21T00:18:54.086Z,55.80
2023-01-21T00:21:27.154Z,58.30
2023-01-21T00:24:00.101Z,57.00
2023-01-21T00:26:33.140Z,58.50
2023-01-21T00:29:06.203Z,51.60
2023-01-21T00:31:39.646Z,62.60
2023-01-21T00:34:13.256Z,59.00
2023-01-21T00:36:47.787Z,66.20
2023-01-21T00:39:20.801Z,50.70
2023-01-21T00:41:53.804Z,48.20
2023-01-21T00:44:26.871Z,41.00
2023-01-21T00:46:59.827Z,66.30
2023-01-21T00:49:32.796Z,45.80
2023-01-21T00:52:06.521Z,60.10
2023-01-21T00:54:39.869Z,72.10
2023-01-21T00:57:14.033Z,48.80
2023-01-21T00:59:47.201Z,49.00
2023-01-21T01:02:20.524Z,53.60
2023-01-21T01:04:53.669Z,38.00
2023-01-21T01:07:26.681Z,75.40
2023-01-21T01:10:00.128Z,47.10
2023-01-21T01:12:34.215Z,40.40
2023-01-21T01:15:08.488Z,55.10
2023-01-21T01:17:41.485Z,61.90
2023-01-21T01:20:16.243Z,71.70
2023-01-21T01:22:49.416Z,60.70
2023-01-21T01:25:22.625Z,66.80
2023-01-21T01:27:55.600Z,75.60
2023-01-21T01:30:28.566Z,57.90
2023-01-21T01:33:01.875Z,52.90
2023-01-21T01:35:35.690Z,57.90
2023-01-21T01:38:10.210Z,51.70
2023-01-21T01:40:43.413Z,36.20
2023-01-21T01:43:21.311Z,60.20
2023-01-21T01:45:55.096Z,62.30
2023-01-21T01:48:32.805Z,43.60
2023-01-21T01:51:07.802Z,46.10
2023-01-21T01:53:44.651Z,60.60
2023-01-21T01:56:18.135Z,32.20
2023-01-21T01:58:51.557Z,49.30
2023-01-21T02:01:25.265Z,57.20
2023-01-21T02:04:01.062Z,70.80
2023-01-21T02:06:34.466Z,64.80
2023-01-21T02:09:07.506Z,71.20
2023-01-21T02:11:40.535Z,61.90
2023-01-21T02:14:13.636Z,68.60
2023-01-21T02:17:12.861Z,52.90
2023-01-21T02:20:23.990Z,40.10
2023-01-21T02:23:05.978Z,54.70
2023-01-21T02:26:22.999Z,61.70
2023-01-21T02:29:49.893Z,35.20
2023-01-21T02:32:53.822Z,50.20
2023-01-21T02:35:36.170Z,45.90
2023-01-21T02:38:18.973Z,55.30
2023-01-21T02:41:08.475Z,53.10
2023-01-21T02:43:52.959Z,35.50
2023-01-21T02:46:32.664Z,47.90
2023-01-21T02:49:14.288Z,33.60
2023-01-21T02:51:52.618Z,46.00
2023-01-21T02:54:57.413Z,40.40
2023-01-21T02:57:49.962Z,39.60
2023-01-21T03:00:28.517Z,36.80
2023-01-21T03:03:49.280Z,24.30
2023-01-21T03:06:49.773Z,33.40
2023-01-21T03:12:30.513Z,32.50
2023-01-21T03:15:27.667Z,33.10
2023-01-21T03:18:06.986Z,41.20
2023-01-21T03:20:44.639Z,34.50
2023-01-21T03:23:22.830Z,26.80
2023-01-21T03:25:58.546Z,39.80
2023-01-21T03:28:36.762Z,31.80
2023-01-21T03:31:16.948Z,40.70
2023-01-21T03:33:52.873Z,31.30
2023-01-21T03:36:36.063Z,39.30
2023-01-21T03:39:17.193Z,41.90
2023-01-21T03:41:50.650Z,34.90
2023-01-21T03:44:23.831Z,41.30
2023-01-21T03:47:08.895Z,40.00
2023-01-21T03:49:46.361Z,27.20
2023-01-21T03:52:22.005Z,34.10
2023-01-21T03:54:55.800Z,22.60
2023-01-21T03:57:28.837Z,22.90
2023-01-21T04:00:01.801Z,36.60
2023-01-21T04:02:37.616Z,35.60
2023-01-21T04:05:12.060Z,37.90
2023-01-21T04:07:45.004Z,34.10
2023-01-21T04:10:18.791Z,30.10
2023-01-21T04:12:52.058Z,34.00
2023-01-21T04:15:25.124Z,29.80
2023-01-21T04:17:58.080Z,37.30
2023-01-21T04:20:31.426Z,34.80
2023-01-21T04:23:04.530Z,34.50
2023-01-21T04:25:37.522Z,33.30
2023-01-21T04:28:10.775Z,39.70
2023-01-21T04:30:43.932Z,23.70
2023-01-21T04:33:17.298Z,39.60
2023-01-21T04:35:50.298Z,26.90
2023-01-21T04:38:23.366Z,34.60
2023-01-21T04:40:56.367Z,27.20
2023-01-21T04:43:29.455Z,44.80
2023-01-21T04:46:02.733Z,34.10
2023-01-21T04:48:35.752Z,35.30
2023-01-21T04:51:09.442Z,31.40
2023-01-21T04:53:42.451Z,30.00
2023-01-21T04:56:15.632Z,22.40
2023-01-21T04:58:48.684Z,37.50
2023-01-21T05:01:21.705Z,42.00
2023-01-21T05:03:54.767Z,28.90
2023-01-21T05:06:27.757Z,40.60
2023-01-21T05:09:00.760Z,21.40
2023-01-21T05:11:33.751Z,37.10
2023-01-21T05:14:06.805Z,31.70
2023-01-21T05:16:39.831Z,37.70
2023-01-21T05:19:13.293Z,44.20
2023-01-21T05:21:46.462Z,31.60
2023-01-21T05:24:19.730Z,37.40
2023-01-21T05:26:52.824Z,31.20
2023-01-21T05:29:25.869Z,15.40
2023-01-21T05:31:58.961Z,20.10
2023-01-21T05:34:32.090Z,24.70
2023-01-21T05:37:05.174Z,29.40
2023-01-21T05:39:38.251Z,40.20
2023-01-21T05:42:11.512Z,36.90
2023-01-21T05:44:44.573Z,38.30
2023-01-21T05:47:17.659Z,24.70
2023-01-21T05:49:50.760Z,27.90
2023-01-21T05:52:23.779Z,37.60
2023-01-21T05:55:02.095Z,40.00
2023-01-21T05:57:36.066Z,19.90
2023-01-21T06:00:11.864Z,25.00
2023-01-21T06:02:44.894Z,26.20
2023-01-21T06:05:18.228Z,31.60
2023-01-21T06:07:51.293Z,28.60
2023-01-21T06:10:24.404Z,33.80
2023-01-21T06:12:57.772Z,29.30
2023-01-21T06:15:33.471Z,35.00
2023-01-21T06:18:07.118Z,22.00
2023-01-21T06:20:40.877Z,24.50
2023-01-21T06:23:14.532Z,30.90
2023-01-21T06:25:47.685Z,32.90
2023-01-21T06:28:20.965Z,25.60
2023-01-21T06:30:54.061Z,33.80
2023-01-21T06:33:27.198Z,31.50
2023-01-21T06:36:00.141Z,17.90
2023-01-21T06:38:36.155Z,21.60
2023-01-21T06:41:09.524Z,18.00
2023-01-21T06:43:42.503Z,16.20
2023-01-21T06:46:15.836Z,24.30
2023-01-21T06:48:48.887Z,26.00
2023-01-21T06:51:22.141Z,23.20
2023-01-21T06:53:55.477Z,26.00
2023-01-21T06:56:28.410Z,24.50
2023-01-21T06:59:01.476Z,26.10
2023-01-21T07:01:34.507Z,18.20
2023-01-21T07:04:07.547Z,27.80
2023-01-21T07:06:40.831Z,31.00
2023-01-21T07:09:14.542Z,21.80
2023-01-21T07:11:47.669Z,27.30
2023-01-21T07:14:20.801Z,25.10
2023-01-21T07:16:53.778Z,18.80
2023-01-21T07:19:26.801Z,25.00
2023-01-21T07:21:59.777Z,18.80
2023-01-21T07:24:32.896Z,16.20
2023-01-21T07:27:06.429Z,19.70
2023-01-21T07:29:39.617Z,19.60
2023-01-21T07:32:12.877Z,24.20
2023-01-21T07:34:46.691Z,24.00
2023-01-21T07:37:19.729Z,21.90
2023-01-21T07:39:54.634Z,15.30
2023-01-21T07:42:27.719Z,16.20
2023-01-21T07:45:03.136Z,18.00
2023-01-21T07:47:36.125Z,21.70
2023-01-21T07:50:11.493Z,19.30
2023-01-21T07:52:44.408Z,17.60
2023-01-21T07:55:18.446Z,16.60
2023-01-21T07:57:51.697Z,18.10
2023-01-21T08:00:27.384Z,14.70
2023-01-21T08:03:00.588Z,13.80
2023-01-21T08:05:33.849Z,21.10
2023-01-21T08:08:06.987Z,14.40
2023-01-21T08:10:39.965Z,14.10
2023-01-21T08:13:13.048Z,12.40
2023-01-21T08:15:46.146Z,20.70
2023-01-21T08:18:19.611Z,17.70
2023-01-21T08:20:56.862Z,12.60
2023-01-21T08:23:30.394Z,12.90
2023-01-21T08:26:07.508Z,12.30
2023-01-21T08:28:40.579Z,9.20
2023-01-21T08:31:15.329Z,12.00
2023-01-21T08:33:48.572Z,10.20
2023-01-21T08:36:21.693Z,30.70
2023-01-21T08:38:58.786Z,16.20
2023-01-21T08:41:31.865Z,17.70
2023-01-21T08:44:04.899Z,16.60
2023-01-21T08:46:37.960Z,16.20
2023-01-21T08:49:11.336Z,10.40
2023-01-21T08:51:44.321Z,16.40
2023-01-21T08:54:17.447Z,16.90
2023-01-21T08:56:50.417Z,16.40
2023-01-21T08:59:28.962Z,13.30
2023-01-21T09:02:02.124Z,16.90
2023-01-21T09:04:35.675Z,14.80
2023-01-21T09:07:08.629Z,14.80
2023-01-21T09:09:41.657Z,17.30
2023-01-21T09:12:14.607Z,15.90
2023-01-21T09:14:48.065Z,10.40
2023-01-21T09:17:21.966Z,11.60
2023-01-21T09:19:55.649Z,14.70
2023-01-21T09:22:30.172Z,15.90
2023-01-21T09:25:10.351Z,13.50
2023-01-21T09:27:43.285Z,14.50
2023-01-21T09:30:18.170Z,13.00
2023-01-21T09:32:51.392Z,13.80
2023-01-21T09:35:24.432Z,11.80
2023-01-21T09:37:57.453Z,14.40
2023-01-21T09:40:31.328Z,10.70
2023-01-21T09:43:16.994Z,13.60
2023-01-21T09:45:51.870Z,9.20
2023-01-21T09:48:34.055Z,10.80
2023-01-21T09:51:14.820Z,10.50
2023-01-21T09:53:53.219Z,12.70
2023-01-21T09:56:35.823Z,8.10
2023-01-21T09:59:22.251Z,10.00
2023-01-21T10:02:00.368Z,9.40
2023-01-21T10:04:47.302Z,10.70
2023-01-21T10:07:25.009Z,12.60
2023-01-21T10:10:10.767Z,12.30
2023-01-21T10:13:04.474Z,9.80
2023-01-21T10:15:53.908Z,10.90
2023-01-21T10:18:32.430Z,10.20
2023-01-21T10:21:14.414Z,6.60
2023-01-21T10:23:52.682Z,10.00
2023-01-21T10:26:26.351Z,6.20
2023-01-21T10:28:59.707Z,10.30
2023-01-21T10:31:39.278Z,9.50
2023-01-21T10:34:22.602Z,9.40
2023-01-21T10:37:07.731Z,9.50
2023-01-21T10:39:55.629Z,8.40
2023-01-21T10:42:51.591Z,9.20
2023-01-21T10:45:40.466Z,6.50
2023-01-21T10:48:20.934Z,5.60
2023-01-21T10:50:59.381Z,6.10
2023-01-21T10:53:40.020Z,4.80
2023-01-21T10:58:56.896Z,11.40
2023-01-21T11:01:34.691Z,4.50
2023-01-21T11:04:15.933Z,10.90
2023-01-21T11:06:55.758Z,6.40
2023-01-21T11:09:31.464Z,8.60
2023-01-21T11:12:04.622Z,6.60
2023-01-21T11:14:38.044Z,5.10
2023-01-21T11:17:11.321Z,6.00
2023-01-21T11:19:58.741Z,8.00
2023-01-21T11:22:34.625Z,6.70
2023-01-21T11:25:27.559Z,7.30
2023-01-21T11:28:00.649Z,6.10
2023-01-21T11:30:54.917Z,7.50
2023-01-21T11:33:30.102Z,10.00
2023-01-21T11:36:14.246Z,10.00
2023-01-21T11:38:50.739Z,7.80
2023-01-21T11:41:25.708Z,8.90
2023-01-21T11:44:11.672Z,6.80
2023-01-21T11:46:45.156Z,7.30
2023-01-21T11:49:32.634Z,7.80
2023-01-21T11:52:22.747Z,8.30
2023-01-21T11:54:55.821Z,9.00
2023-01-21T11:57:34.092Z,7.50
2023-01-21T12:00:22.997Z,5.40
2023-01-21T12:03:01.269Z,9.50
2023-01-21T12:05:38.532Z,10.00
2023-01-21T12:08:23.179Z,7.60
2023-01-21T12:10:58.737Z,11.40
2023-01-21T12:13:44.387Z,6.30
2023-01-21T12:16:31.613Z,7.10
2023-01-21T12:19:38.347Z,8.30
2023-01-21T12:22:32.730Z,6.70
2023-01-21T12:25:32.173Z,9.00
2023-01-21T12:28:21.599Z,7.20
2023-01-21T12:31:07.250Z,6.80
2023-01-21T12:33:52.339Z,9.40
2023-01-21T12:36:31.273Z,7.80
2023-01-21T12:39:21.001Z,10.10
2023-01-21T12:42:05.290Z,10.00
2023-01-21T12:44:45.203Z,8.60
2023-01-21T12:47:32.147Z,8.30
2023-01-21T12:50:19.829Z,6.40
2023-01-21T12:53:03.712Z,8.70
2023-01-21T12:55:51.332Z,8.80
2023-01-21T12:58:27.839Z,5.60
2023-01-21T13:01:07.341Z,8.50
2023-01-21T13:03:51.751Z,7.50
2023-01-21T13:06:47.153Z,4.80
2023-01-21T13:09:37.065Z,10.60
2023-01-21T13:12:16.651Z,8.90
2023-01-21T13:14:53.804Z,8.50
2023-01-21T13:17:32.639Z,5.50
2023-01-21T13:20:17.954Z,8.90
2023-01-21T13:23:04.619Z,7.00
2023-01-21T13:25:50.833Z,9.70
2023-01-21T13:28:33.196Z,11.30
2023-01-21T13:31:16.441Z,12.20
2023-01-21T13:34:01.211Z,8.90
2023-01-21T13:36:50.686Z,7.80
2023-01-21T13:39:31.676Z,11.40
2023-01-21T13:42:33.985Z,6.40
2023-01-21T13:45:28.413Z,12.60
2023-01-21T13:48:23.035Z,12.10
2023-01-21T13:51:18.325Z,9.50
2023-01-21T13:54:26.557Z,8.90
2023-01-21T13:57:24.782Z,8.80
2023-01-21T14:00:00.668Z,8.40
2023-01-21T14:02:41.330Z,8.60
2023-01-21T14:05:18.950Z,11.50
2023-01-21T14:07:55.076Z,9.40
2023-01-21T14:10:35.098Z,9.00
2023-01-21T14:13:53.257Z,7.70
2023-01-21T14:16:57.660Z,13.40
2023-01-21T14:20:02.538Z,14.70
2023-01-21T14:22:51.554Z,13.70
2023-01-21T14:25:37.787Z,11.50
2023-01-21T14:28:22.014Z,13.50
2023-01-21T14:31:06.704Z,14.70
2023-01-21T14:33:48.381Z,14.80
2023-01-21T14:36:29.560Z,16.10
2023-01-21T14:39:08.992Z,14.10
2023-01-21T14:42:09.373Z,9.80
2023-01-21T14:45:02.735Z,13.20
2023-01-21T14:47:58.014Z,13.70
2023-01-21T14:50:55.449Z,9.90
2023-01-21T14:53:30.237Z,7.90
2023-01-21T14:56:22.071Z,10.50
2023-01-21T14:58:59.035Z,9.10
2023-01-21T15:01:39.468Z,12.10
2023-01-21T15:04:25.706Z,12.50
2023-01-21T15:07:02.323Z,6.80
2023-01-21T15:09:39.773Z,12.50
2023-01-21T15:12:22.498Z,14.00
2023-01-21T15:14:59.986Z,9.70
2023-01-21T15:18:24.039Z,12.70
2023-01-21T15:20:59.113Z,11.10
2023-01-21T15:23:42.422Z,8.50
2023-01-21T15:27:04.237Z,7.90
2023-01-21T15:29:39.220Z,10.50
2023-01-21T15:32:30.523Z,10.30
2023-01-21T15:35:13.347Z,11.30
2023-01-21T15:37:52.316Z,8.70
2023-01-21T15:40:28.701Z,10.70
2023-01-21T15:43:08.362Z,11.50
2023-01-21T15:45:52.278Z,12.10
2023-01-21T15:49:19.906Z,14.40
2023-01-21T15:52:06.900Z,15.40
2023-01-21T15:54:52.589Z,8.60
2023-01-21T15:57:44.650Z,11.30
2023-01-21T16:00:44.522Z,12.50
2023-01-21T16:03:29.052Z,16.30
2023-01-21T16:06:10.528Z,21.30
2023-01-21T16:09:03.993Z,11.90
2023-01-21T16:11:57.702Z,15.40
2023-01-21T16:14:52.752Z,21.50
2023-01-21T16:17:45.182Z,18.20
2023-01-21T16:20:18.618Z,15.90
2023-01-21T16:22:56.270Z,21.80
2023-01-21T16:25:29.825Z,21.60
2023-01-21T16:28:04.363Z,25.00
2023-01-21T16:30:37.328Z,16.10
2023-01-21T16:33:18.484Z,18.40
2023-01-21T16:35:54.176Z,24.70
2023-01-21T16:38:30.104Z,15.20
2023-01-21T16:41:31.253Z,25.40
2023-01-21T16:44:06.832Z,25.70
2023-01-21T16:46:42.180Z,20.90
2023-01-21T16:49:19.656Z,26.80
2023-01-21T16:51:56.650Z,23.90
2023-01-21T16:54:31.971Z,19.10
2023-01-21T16:57:22.904Z,17.10
2023-01-21T16:59:58.329Z,21.90
2023-01-21T17:02:33.363Z,25.70
2023-01-21T17:05:08.434Z,14.10
2023-01-21T17:07:46.627Z,31.30
2023-01-21T17:10:26.465Z,30.40
2023-01-21T17:13:04.350Z,23.80
2023-01-21T17:15:40.281Z,21.80
2023-01-21T17:18:22.454Z,25.00
2023-01-21T17:21:01.597Z,19.10
2023-01-21T17:23:38.257Z,15.80
2023-01-21T17:26:18.511Z,20.10
2023-01-21T17:28:57.927Z,14.90
2023-01-21T17:31:37.169Z,21.20
2023-01-21T17:34:23.102Z,16.20
2023-01-21T17:36:57.405Z,15.10
2023-01-21T17:40:02.321Z,15.80
2023-01-21T17:42:42.817Z,14.40
2023-01-21T17:45:27.695Z,13.50
2023-01-21T17:48:12.464Z,13.50
2023-01-21T17:50:50.682Z,12.90
2023-01-21T17:53:31.156Z,22.50
2023-01-21T17:56:06.930Z,14.80
2023-01-21T17:58:52.183Z,17.50
2023-01-21T18:01:25.389Z,19.40
2023-01-21T18:03:58.546Z,16.50
2023-01-21T18:06:33.964Z,21.00
2023-01-21T18:09:07.737Z,16.20
2023-01-21T18:11:40.784Z,16.30
2023-01-21T18:14:17.298Z,20.90
2023-01-21T18:16:51.002Z,12.40
2023-01-21T18:19:35.450Z,14.50
2023-01-21T18:22:24.855Z,18.80
2023-01-21T18:24:58.158Z,19.30
2023-01-21T18:27:32.003Z,22.90
2023-01-21T18:30:10.937Z,22.50
2023-01-21T18:32:44.103Z,18.30
2023-01-21T18:35:18.949Z,20.10
2023-01-21T18:37:52.672Z,17.90
2023-01-21T18:40:26.689Z,18.30
2023-01-21T18:42:59.656Z,19.90
2023-01-21T18:45:32.776Z,21.60
2023-01-21T18:48:10.960Z,20.00
2023-01-21T18:50:44.242Z,26.50
2023-01-21T18:53:18.359Z,25.30
2023-01-21T18:55:54.845Z,29.00
2023-01-21T18:58:27.840Z,32.50
2023-01-21T19:01:08.074Z,37.20
2023-01-21T19:03:47.092Z,28.90
2023-01-21T19:06:20.707Z,37.60
2023-01-21T19:08:55.318Z,26.00
2023-01-21T19:11:28.358Z,46.50
2023-01-21T19:14:02.163Z,34.50
2023-01-21T19:16:35.295Z,25.00
2023-01-21T19:19:15.862Z,29.60
2023-01-21T19:24:20.382Z,28.80
2023-01-21T19:26:53.359Z,28.50
2023-01-21T19:29:28.588Z,34.80
2023-01-21T19:32:01.634Z,32.90
2023-01-21T19:34:34.718Z,41.30
2023-01-21T19:37:10.081Z,31.20
2023-01-21T19:39:43.130Z,38.00
2023-01-21T19:42:18.097Z,35.90
2023-01-21T19:44:51.073Z,38.90
2023-01-21T19:47:29.577Z,41.90
2023-01-21T19:50:04.065Z,82.90
2023-01-21T19:52:38.261Z,42.30
2023-01-21T19:55:16.375Z,43.70
2023-01-21T19:57:53.948Z,43.00
2023-01-21T20:00:29.419Z,36.40
2023-01-21T20:03:02.808Z,43.70
2023-01-21T20:05:36.145Z,32.80
2023-01-21T20:08:11.393Z,35.30
2023-01-21T20:10:44.906Z,45.20
2023-01-21T20:13:19.095Z,47.40
2023-01-21T20:15:53.987Z,61.20
2023-01-21T20:18:29.758Z,48.30
2023-01-21T20:21:02.899Z,42.30
2023-01-21T20:23:36.502Z,35.40
2023-01-21T20:26:13.637Z,38.50
2023-01-21T20:28:54.730Z,40.50
2023-01-21T20:31:29.289Z,31.70
2023-01-21T20:34:02.523Z,35.30
2023-01-21T20:36:35.635Z,34.80
2023-01-21T20:39:11.669Z,40.40
2023-01-21T20:41:44.722Z,34.20
2023-01-21T20:44:17.713Z,34.50
2023-01-21T20:46:50.899Z,51.30
2023-01-21T20:49:24.043Z,41.50
2023-01-21T20:51:57.227Z,45.60
2023-01-21T20:54:30.266Z,38.00
2023-01-21T20:57:03.953Z,51.30
2023-01-21T20:59:37.210Z,46.70
2023-01-21T21:02:13.194Z,58.30
2023-01-21T21:04:46.509Z,62.00
2023-01-21T21:07:24.198Z,56.80
2023-01-21T21:10:00.254Z,54.90
2023-01-21T21:12:33.257Z,52.00
2023-01-21T21:15:06.814Z,47.60
2023-01-21T21:17:39.797Z,58.20
2023-01-21T21:20:20.718Z,62.10
2023-01-21T21:22:54.139Z,43.70
2023-01-21T21:25:28.729Z,66.30
2023-01-21T21:28:01.858Z,81.30
2023-01-21T21:30:36.076Z,80.90
2023-01-21T21:33:14.745Z,72.40
2023-01-21T21:35:48.134Z,112.90
2023-01-21T21:38:23.086Z,79.80
2023-01-21T21:40:57.866Z,64.70
2023-01-21T21:43:35.685Z,81.90
2023-01-21T21:46:31.254Z,81.30
2023-01-21T21:49:04.427Z,72.60
2023-01-21T21:51:38.232Z,49.60
2023-01-21T21:54:12.580Z,52.80
2023-01-21T21:56:46.124Z,53.20
2023-01-21T21:59:19.313Z,54.10
2023-01-21T22:01:52.328Z,68.70
2023-01-21T22:04:25.320Z,51.10
2023-01-21T22:06:58.577Z,51.70
2023-01-21T22:09:31.703Z,42.80
2023-01-21T22:12:04.862Z,59.30
2023-01-21T22:14:37.852Z,35.10
2023-01-21T22:17:10.923Z,49.90
2023-01-21T22:19:43.934Z,47.70
2023-01-21T22:22:16.913Z,45.90
2023-01-21T22:24:49.882Z,62.00
2023-01-21T22:27:22.857Z,66.80
2023-01-21T22:29:56.004Z,50.30
2023-01-21T22:32:29.039Z,60.90
2023-01-21T22:35:02.004Z,59.60
2023-01-21T22:37:35.307Z,46.90
2023-01-21T22:40:10.850Z,43.90
2023-01-21T22:42:43.842Z,39.40
2023-01-21T22:45:19.856Z,42.60
2023-01-21T22:47:54.570Z,35.70
2023-01-21T22:50:27.697Z,49.60
2023-01-21T22:53:00.785Z,53.00
2023-01-21T22:55:36.516Z,42.70
2023-01-21T22:58:09.620Z,37.00
2023-01-21T23:00:43.934Z,50.30
2023-01-21T23:03:17.230Z,42.50
2023-01-21T23:05:50.828Z,57.50
2023-01-21T23:08:24.432Z,46.00
2023-01-21T23:11:05.595Z,48.60
2023-01-21T23:13:38.882Z,40.50
2023-01-21T23:16:15.727Z,43.70
2023-01-21T23:18:48.947Z,42.70
2023-01-21T23:21:23.857Z,45.80
2023-01-21T23:23:56.900Z,55.00
2023-01-21T23:26:30.026Z,54.20
2023-01-21T23:29:03.009Z,48.90
2023-01-21T23:31:36.352Z,44.60
2023-01-21T23:34:09.364Z,46.00
2023-01-21T23:36:42.386Z,52.60
2023-01-21T23:39:15.802Z,52.10
2023-01-21T23:41:48.758Z,37.20
2023-01-21T23:44:21.757Z,51.90
2023-01-21T23:46:54.907Z,48.10
2023-01-21T23:49:27.820Z,50.10
2023-01-21T23:52:00.793Z,40.20
2023-01-21T23:54:33.753Z,45.50
2023-01-21T23:57:06.767Z,32.00
2023-01-21T23:59:40.255Z,42.80
